TRM weather

Jacqueline Cochran Regional Airport
Palm Springs, California, United States

Public forecast

Using degrees Fahrenheit for public forecast. Weather courtesy of forecast.io.

METAR (pilot weather report)

Retrieved 2019/09/22 20:52 UTC (55 minutes ago):

KTRM 222052Z AUTO 12009KT 10SM CLR 36/M02 A2983 RMK AO2 SLP102 T03561017 58018 $

TAF (pilot weather forecast)

Retrieved 2019/09/22 18:22 UTC (3 hours ago):

TAF KTRM 221720Z 2218/2318 VRB04KT P6SM SCT250 FM221900 15008KT P6SM SCT200 FM230100 34005KT P6SM SCT200